Time;durP1;ratioP1;P1;durP2;ratioP2;P2;SDS_P1;SDS_P2;PMS_P1;PMS_P2;Temp;Humidity;BMP_temperature;BMP_pressure;BME280_temperature;BME280_humidity;BME280_pressure;Samples;Min_cycle;Max_cycle;Signal;HPM_P1;HPM_P2
2022/01/27 00:01:30;;;;;;;36.03;17.80;;;1.20;99.90;;;;;;5050471;28;20979;-58
2022/01/27 00:04:10;;;;;;;35.73;18.47;;;1.20;99.90;;;;;;5102467;28;20498;-58
2022/01/27 00:06:39;;;;;;;40.20;19.30;;;1.20;99.90;;;;;;5113409;28;20503;-58
2022/01/27 00:09:16;;;;;;;30.27;17.00;;;1.10;99.90;;;;;;5113365;28;20474;-58
2022/01/27 00:11:47;;;;;;;39.30;17.30;;;1.10;99.90;;;;;;5113330;28;20549;-58
2022/01/27 00:14:16;;;;;;;33.07;18.17;;;1.10;99.90;;;;;;5116903;28;20479;-57
2022/01/27 00:16:53;;;;;;;37.57;17.40;;;1.10;99.90;;;;;;5117103;28;20494;-58
2022/01/27 00:19:20;;;;;;;46.77;18.27;;;1.20;99.90;;;;;;5116935;28;20450;-58
2022/01/27 00:21:47;;;;;;;30.90;18.83;;;1.00;99.90;;;;;;5116982;28;20473;-58
2022/01/27 00:24:15;;;;;;;37.90;20.33;;;0.80;99.90;;;;;;5116776;28;20452;-58
2022/01/27 00:26:44;;;;;;;39.00;19.10;;;0.70;99.90;;;;;;5116525;28;20470;-57
2022/01/27 00:29:12;;;;;;;37.50;17.70;;;0.90;99.90;;;;;;5116944;28;20447;-58
2022/01/27 00:31:39;;;;;;;33.47;19.10;;;0.80;99.90;;;;;;5116545;28;20796;-58
2022/01/27 00:34:06;;;;;;;40.20;18.80;;;0.90;99.90;;;;;;5116593;28;20447;-58
2022/01/27 00:36:34;;;;;;;39.37;17.63;;;0.90;99.90;;;;;;5116728;28;20521;-58
2022/01/27 00:39:02;;;;;;;41.73;19.63;;;0.60;99.90;;;;;;5116747;28;20447;-58
2022/01/27 00:41:29;;;;;;;35.57;20.43;;;0.60;99.90;;;;;;5116654;28;20549;-58
2022/01/27 00:43:58;;;;;;;33.73;20.03;;;0.60;99.90;;;;;;5116371;28;20449;-58
2022/01/27 00:46:25;;;;;;;28.50;17.60;;;0.60;99.90;;;;;;5116281;28;20447;-58
2022/01/27 00:48:52;;;;;;;38.57;20.00;;;0.60;99.90;;;;;;5116176;28;20556;-58
2022/01/27 00:51:23;;;;;;;34.77;17.97;;;0.80;99.90;;;;;;5116116;28;20469;-58
2022/01/27 00:53:57;;;;;;;46.33;20.10;;;0.70;99.90;;;;;;5116472;28;20504;-57
2022/01/27 00:56:31;;;;;;;43.47;20.73;;;0.80;99.90;;;;;;5116395;28;20803;-58
2022/01/27 00:59:16;;;;;;;34.37;18.23;;;1.00;99.90;;;;;;5116382;28;20789;-58
2022/01/27 01:01:49;;;;;;;42.00;19.77;;;1.00;99.90;;;;;;5115863;28;20473;-58
2022/01/27 01:04:24;;;;;;;44.63;19.57;;;1.00;99.90;;;;;;5115934;28;20870;-58
2022/01/27 01:06:52;;;;;;;40.67;19.97;;;1.00;99.90;;;;;;5116222;28;20525;-58
2022/01/27 01:14:53;;;;;;;33.83;18.10;;;1.10;99.90;;;;;;5116503;28;20818;-57
2022/01/27 01:17:42;;;;;;;32.10;18.50;;;1.20;99.90;;;;;;5115919;28;20820;-58
2022/01/27 01:31:29;;;;;;;36.47;16.50;;;1.10;99.90;;;;;;5115470;28;20450;-58
2022/01/27 01:34:12;;;;;;;35.63;16.97;;;1.00;99.90;;;;;;5115676;28;20517;-58
2022/01/27 01:36:46;;;;;;;26.63;17.00;;;1.00;99.90;;;;;;5115475;28;20511;-57
2022/01/27 01:39:13;;;;;;;31.33;17.07;;;1.20;99.90;;;;;;5115521;28;20431;-58
2022/01/27 01:41:42;;;;;;;31.67;17.53;;;1.20;99.90;;;;;;5115350;28;20466;-58
2022/01/27 01:44:09;;;;;;;25.60;14.93;;;1.30;99.90;;;;;;5115087;28;21000;-58
2022/01/27 01:46:38;;;;;;;32.73;17.40;;;1.30;99.90;;;;;;5116106;28;20786;-58
2022/01/27 01:49:06;;;;;;;26.87;15.40;;;1.40;99.90;;;;;;5115526;28;20442;-58
2022/01/27 01:51:37;;;;;;;26.10;14.57;;;1.40;99.90;;;;;;5114872;28;20973;-58
2022/01/27 01:54:05;;;;;;;28.93;15.50;;;1.50;99.90;;;;;;5115264;28;20474;-58
2022/01/27 01:56:32;;;;;;;29.43;16.97;;;1.60;99.90;;;;;;5115449;28;20474;-58
2022/01/27 01:58:59;;;;;;;30.33;16.80;;;1.50;99.90;;;;;;5114979;28;20483;-58
2022/01/27 02:01:27;;;;;;;26.93;15.17;;;1.40;99.90;;;;;;5115803;28;20467;-58
2022/01/27 02:03:55;;;;;;;26.43;15.37;;;1.50;99.90;;;;;;5114726;28;20808;-58
2022/01/27 02:06:29;;;;;;;27.77;15.37;;;1.50;99.90;;;;;;5114979;28;20553;-57
2022/01/27 02:09:12;;;;;;;29.60;16.40;;;1.50;99.90;;;;;;5114962;28;20433;-57
2022/01/27 02:20:14;;;;;;;26.13;15.60;;;1.20;99.90;;;;;;5051803;28;20444;-58
2022/01/27 02:22:41;;;;;;;24.87;16.13;;;0.90;99.90;;;;;;5087263;28;20466;-58
2022/01/27 02:25:09;;;;;;;33.27;16.47;;;0.90;99.90;;;;;;5114368;28;20446;-58
2022/01/27 02:27:38;;;;;;;28.13;16.50;;;0.90;99.90;;;;;;5114537;28;20509;-58
2022/01/27 02:30:06;;;;;;;22.97;15.37;;;1.00;99.90;;;;;;5114232;28;20442;-58
2022/01/27 02:32:34;;;;;;;34.70;17.43;;;0.90;99.90;;;;;;5114411;28;20494;-58
2022/01/27 02:35:01;;;;;;;25.73;15.47;;;1.00;99.90;;;;;;5113959;28;20446;-58
2022/01/27 02:37:30;;;;;;;28.60;16.80;;;0.80;99.90;;;;;;5114077;28;20557;-58
2022/01/27 02:39:57;;;;;;;30.40;15.60;;;0.90;99.90;;;;;;5114230;28;20534;-58
2022/01/27 02:42:30;;;;;;;21.97;14.30;;;1.00;99.90;;;;;;5114267;28;20866;-58
2022/01/27 02:45:04;;;;;;;22.77;14.23;;;1.20;99.90;;;;;;5114291;28;20758;-58
2022/01/27 02:47:32;;;;;;;27.93;16.50;;;1.30;99.90;;;;;;5114224;28;20426;-58
2022/01/27 02:49:59;;;;;;;31.73;19.43;;;1.40;99.90;;;;;;5113802;28;20446;-58
2022/01/27 02:52:26;;;;;;;29.40;16.20;;;1.50;99.90;;;;;;5113675;28;20832;-58
2022/01/27 02:54:55;;;;;;;27.60;16.27;;;1.50;99.90;;;;;;5113603;28;21003;-58
2022/01/27 02:57:22;;;;;;;27.77;16.40;;;1.40;99.90;;;;;;5114154;28;20467;-58
2022/01/27 02:59:49;;;;;;;25.90;16.17;;;1.40;99.90;;;;;;5113965;28;20449;-58
2022/01/27 03:02:16;;;;;;;25.03;15.03;;;1.40;99.90;;;;;;5113676;28;20494;-58
2022/01/27 03:04:44;;;;;;;31.70;16.23;;;1.50;99.90;;;;;;5113978;28;20526;-57
2022/01/27 03:07:11;;;;;;;30.97;17.77;;;1.40;99.90;;;;;;5113615;28;20447;-57
2022/01/27 03:09:39;;;;;;;30.00;16.90;;;1.50;99.90;;;;;;5113536;28;20465;-58
2022/01/27 03:12:10;;;;;;;31.83;15.27;;;1.50;99.90;;;;;;5113728;28;20470;-58
2022/01/27 03:14:38;;;;;;;27.37;15.70;;;1.40;99.90;;;;;;5113809;28;20488;-58
2022/01/27 03:17:07;;;;;;;31.40;15.97;;;1.40;99.90;;;;;;5113702;28;20461;-58
2022/01/27 03:19:35;;;;;;;23.13;14.40;;;1.40;99.90;;;;;;5113824;28;20438;-58
2022/01/27 03:22:03;;;;;;;27.50;16.00;;;1.40;99.90;;;;;;5113304;28;20854;-58
2022/01/27 03:24:30;;;;;;;21.73;15.37;;;1.30;99.90;;;;;;5113832;28;20529;-57
2022/01/27 03:26:58;;;;;;;28.10;15.20;;;1.30;99.90;;;;;;5113241;28;21035;-58
2022/01/27 03:29:27;;;;;;;22.43;12.30;;;1.30;99.90;;;;;;5113701;28;20511;-58
2022/01/27 03:31:55;;;;;;;25.90;13.13;;;1.30;99.90;;;;;;5113663;28;20466;-58
2022/01/27 03:34:22;;;;;;;24.43;15.00;;;1.30;99.90;;;;;;5113688;28;20785;-58
2022/01/27 03:36:50;;;;;;;25.50;15.93;;;1.30;99.90;;;;;;5113356;28;20454;-58
2022/01/27 03:39:20;;;;;;;24.40;16.07;;;1.30;99.90;;;;;;5113624;28;20514;-57
2022/01/27 03:41:50;;;;;;;25.80;16.07;;;1.40;99.90;;;;;;5113596;28;20558;-58
2022/01/27 03:44:17;;;;;;;25.70;16.10;;;1.40;99.90;;;;;;5113710;28;20786;-58
2022/01/27 03:46:45;;;;;;;24.43;14.33;;;1.40;99.90;;;;;;5113290;28;20945;-58
2022/01/27 03:49:12;;;;;;;26.57;15.33;;;1.30;99.90;;;;;;5117427;28;20450;-58
2022/01/27 03:51:40;;;;;;;27.80;14.30;;;1.30;99.90;;;;;;5117424;28;20470;-58
2022/01/27 03:54:07;;;;;;;22.50;14.27;;;1.30;99.90;;;;;;5117615;28;20507;-57
2022/01/27 03:56:34;;;;;;;29.10;15.43;;;1.30;99.90;;;;;;5117607;28;20458;-58
2022/01/27 03:59:01;;;;;;;25.00;14.80;;;1.30;99.90;;;;;;5117126;28;20853;-58
2022/01/27 04:01:28;;;;;;;23.57;14.17;;;1.30;99.90;;;;;;5117373;28;20470;-58
2022/01/27 04:03:58;;;;;;;20.90;15.30;;;1.50;99.90;;;;;;5117404;28;20533;-58
2022/01/27 04:06:33;;;;;;;25.43;15.87;;;1.50;99.90;;;;;;5117092;28;20927;-58
2022/01/27 04:09:00;;;;;;;24.70;13.97;;;1.50;99.90;;;;;;5117075;28;20896;-58
2022/01/27 04:11:28;;;;;;;19.97;13.97;;;1.40;99.90;;;;;;5116914;28;20951;-58
2022/01/27 04:13:55;;;;;;;32.47;17.20;;;1.40;99.90;;;;;;5117220;28;20810;-58
2022/01/27 04:16:22;;;;;;;23.63;13.90;;;1.40;99.90;;;;;;5116927;28;20451;-58
2022/01/27 04:18:49;;;;;;;29.20;17.57;;;1.40;99.90;;;;;;5116972;28;20531;-58
2022/01/27 04:21:18;;;;;;;23.73;15.80;;;1.50;99.90;;;;;;5116655;28;20512;-58
2022/01/27 04:23:46;;;;;;;28.00;15.70;;;1.40;99.90;;;;;;5116994;28;20454;-58
2022/01/27 04:26:16;;;;;;;25.97;15.80;;;1.00;99.90;;;;;;5116531;28;20518;-57
2022/01/27 04:28:44;;;;;;;27.40;16.30;;;0.80;99.90;;;;;;5117626;28;20443;-58
2022/01/27 04:31:11;;;;;;;29.20;16.93;;;0.80;99.90;;;;;;5116767;28;20519;-58
2022/01/27 04:33:40;;;;;;;23.13;14.83;;;0.80;99.90;;;;;;5116561;28;20526;-58
2022/01/27 04:36:13;;;;;;;25.07;15.07;;;0.70;99.90;;;;;;5117510;28;20434;-58
2022/01/27 04:38:48;;;;;;;26.93;15.60;;;0.60;99.90;;;;;;5116791;28;20509;-58
2022/01/27 04:41:20;;;;;;;25.40;14.70;;;0.60;99.90;;;;;;5116287;28;20501;-58
2022/01/27 04:43:53;;;;;;;26.00;15.67;;;0.80;99.90;;;;;;5116790;28;20834;-58
2022/01/27 04:46:28;;;;;;;23.00;16.00;;;1.00;99.90;;;;;;5116703;28;20458;-58
2022/01/27 04:48:59;;;;;;;26.07;16.53;;;1.10;99.90;;;;;;5116292;28;20427;-59
2022/01/27 04:51:26;;;;;;;26.70;15.10;;;1.10;99.90;;;;;;5116511;28;20516;-58
2022/01/27 04:54:01;;;;;;;22.00;14.77;;;1.20;99.90;;;;;;5117023;28;20447;-58
2022/01/27 04:56:30;;;;;;;26.93;15.20;;;1.20;99.90;;;;;;5116479;28;20458;-58
2022/01/27 04:59:00;;;;;;;29.73;14.50;;;1.20;99.90;;;;;;5115797;28;20474;-58
2022/01/27 05:01:32;;;;;;;31.37;18.30;;;1.20;99.90;;;;;;5115987;28;20516;-58
2022/01/27 05:04:03;;;;;;;28.17;15.77;;;1.30;99.90;;;;;;5116268;28;20474;-58
2022/01/27 05:06:30;;;;;;;27.90;15.10;;;1.40;99.90;;;;;;5116251;28;20427;-58
2022/01/27 05:08:59;;;;;;;25.83;15.67;;;1.40;99.90;;;;;;5116130;28;20434;-58
2022/01/27 05:11:29;;;;;;;26.60;15.67;;;1.30;99.90;;;;;;5115771;28;20467;-58
2022/01/27 05:14:02;;;;;;;22.50;15.03;;;1.30;99.90;;;;;;5115737;28;20959;-58
2022/01/27 05:16:29;;;;;;;26.40;17.83;;;1.20;99.90;;;;;;5115682;28;20431;-58
2022/01/27 05:18:57;;;;;;;24.60;14.90;;;1.20;99.90;;;;;;5115648;28;20573;-58
2022/01/27 05:21:25;;;;;;;28.00;17.23;;;1.30;99.90;;;;;;5115864;28;20462;-58
2022/01/27 05:23:52;;;;;;;28.77;16.63;;;1.40;99.90;;;;;;5115858;28;20446;-58
2022/01/27 05:26:21;;;;;;;25.50;15.43;;;1.00;99.90;;;;;;5115365;28;20892;-57
2022/01/27 05:28:48;;;;;;;29.87;16.60;;;0.70;99.90;;;;;;5115516;28;20442;-58
2022/01/27 05:31:15;;;;;;;30.83;19.43;;;0.60;99.90;;;;;;5115728;28;20485;-58
2022/01/27 05:33:42;;;;;;;28.07;16.50;;;0.50;99.90;;;;;;5115426;28;20447;-58
2022/01/27 05:36:09;;;;;;;25.60;16.80;;;0.50;99.90;;;;;;5115297;28;20862;-58
2022/01/27 05:38:37;;;;;;;28.23;16.13;;;0.60;99.90;;;;;;5115257;28;20477;-58
2022/01/27 05:41:05;;;;;;;28.47;16.30;;;0.50;99.90;;;;;;5115528;28;20462;-59
2022/01/27 05:43:34;;;;;;;28.93;17.70;;;0.60;99.90;;;;;;5115219;28;20803;-58
2022/01/27 05:46:01;;;;;;;26.13;14.90;;;0.60;99.90;;;;;;5115459;28;20450;-58
2022/01/27 05:48:28;;;;;;;24.57;15.03;;;0.70;99.90;;;;;;5115385;28;20449;-58
2022/01/27 05:50:56;;;;;;;25.13;14.53;;;0.80;99.90;;;;;;5115265;28;20470;-58
2022/01/27 05:53:23;;;;;;;24.80;17.13;;;0.70;99.90;;;;;;5115185;28;20478;-58
2022/01/27 05:55:50;;;;;;;27.53;17.53;;;0.50;99.90;;;;;;5114903;28;20507;-57
2022/01/27 05:58:18;;;;;;;29.10;16.40;;;0.60;99.90;;;;;;5115079;28;20486;-57
2022/01/27 06:00:46;;;;;;;27.57;15.53;;;0.90;99.90;;;;;;5115535;28;20426;-58
2022/01/27 06:03:13;;;;;;;24.63;14.00;;;1.10;99.90;;;;;;5114978;28;20450;-58
2022/01/27 06:05:40;;;;;;;27.67;16.50;;;1.10;99.90;;;;;;5114928;28;20446;-58
2022/01/27 06:08:07;;;;;;;20.90;15.27;;;1.10;99.90;;;;;;5114683;28;20447;-58
2022/01/27 06:10:34;;;;;;;24.67;15.63;;;1.00;99.90;;;;;;5113722;28;20469;-58
2022/01/27 06:13:02;;;;;;;23.70;15.67;;;1.00;99.90;;;;;;5114850;28;20450;-58
2022/01/27 06:15:29;;;;;;;25.27;14.63;;;1.00;99.90;;;;;;5114518;28;20450;-58
2022/01/27 06:17:58;;;;;;;25.80;15.93;;;1.10;99.90;;;;;;5114661;28;20486;-58
2022/01/27 06:20:28;;;;;;;29.70;18.43;;;1.10;99.90;;;;;;5114217;28;21013;-58
2022/01/27 06:22:57;;;;;;;30.57;17.03;;;1.00;99.90;;;;;;5114005;28;20549;-58
2022/01/27 06:25:25;;;;;;;29.07;19.20;;;0.80;99.90;;;;;;5113900;28;20474;-58
2022/01/27 06:27:53;;;;;;;27.03;15.70;;;1.00;99.90;;;;;;5114181;28;20446;-58
2022/01/27 06:30:20;;;;;;;32.53;17.90;;;0.80;99.90;;;;;;5114148;28;20529;-58
2022/01/27 06:32:48;;;;;;;27.13;15.40;;;0.80;99.90;;;;;;5113853;28;20466;-58
2022/01/27 06:35:16;;;;;;;30.30;18.40;;;0.70;99.90;;;;;;5114000;28;20925;-58
2022/01/27 06:37:45;;;;;;;29.60;17.20;;;0.60;99.90;;;;;;5114737;28;20453;-58
2022/01/27 06:40:17;;;;;;;31.20;16.63;;;0.50;99.90;;;;;;5113792;28;20475;-57
2022/01/27 06:42:45;;;;;;;31.97;17.27;;;0.50;99.90;;;;;;5114177;28;20505;-57
2022/01/27 06:45:12;;;;;;;31.43;17.20;;;0.50;99.90;;;;;;5114004;28;20649;-58
2022/01/27 06:47:40;;;;;;;29.30;16.10;;;0.80;99.90;;;;;;5114108;28;20457;-58
2022/01/27 06:50:08;;;;;;;23.67;14.23;;;0.90;99.90;;;;;;5113507;28;20447;-58
2022/01/27 06:52:36;;;;;;;24.53;16.93;;;0.80;99.90;;;;;;5113611;28;20477;-58
2022/01/27 06:55:05;;;;;;;26.60;16.03;;;0.50;99.90;;;;;;5113878;28;20538;-57
2022/01/27 06:57:33;;;;;;;25.17;15.30;;;0.60;99.90;;;;;;5113934;28;20458;-58
2022/01/27 07:00:00;;;;;;;27.83;16.20;;;0.60;99.90;;;;;;5113975;28;20862;-57
2022/01/27 07:02:27;;;;;;;27.33;16.30;;;0.60;99.90;;;;;;5113618;28;20472;-57
2022/01/27 07:04:55;;;;;;;27.43;16.07;;;0.70;99.90;;;;;;5113685;28;20602;-58
2022/01/27 07:07:22;;;;;;;27.20;16.17;;;0.80;99.90;;;;;;5114711;28;20546;-58
2022/01/27 07:09:50;;;;;;;33.00;15.67;;;0.60;99.90;;;;;;5113594;28;20732;-57
2022/01/27 07:12:18;;;;;;;31.50;17.43;;;0.50;99.90;;;;;;5113096;28;21020;-58
2022/01/27 07:14:45;;;;;;;28.63;16.90;;;0.50;99.90;;;;;;5113343;28;20453;-58
2022/01/27 07:17:13;;;;;;;25.80;18.07;;;0.50;99.90;;;;;;5113729;28;20521;-58
2022/01/27 07:19:40;;;;;;;25.57;13.80;;;0.50;99.90;;;;;;5113235;28;20984;-58
2022/01/27 07:22:07;;;;;;;24.77;16.07;;;0.60;99.90;;;;;;5113127;28;20470;-58
2022/01/27 07:24:34;;;;;;;25.63;15.30;;;0.70;99.90;;;;;;5113608;28;20533;-58
2022/01/27 07:27:03;;;;;;;25.53;14.93;;;0.50;99.90;;;;;;5113179;28;20478;-58
2022/01/27 07:29:30;;;;;;;35.20;18.00;;;0.50;99.90;;;;;;5113798;28;20442;-58
2022/01/27 07:31:57;;;;;;;27.07;16.33;;;0.80;99.90;;;;;;5113096;28;21009;-58
2022/01/27 07:34:25;;;;;;;24.80;15.10;;;0.80;99.90;;;;;;5113097;28;20976;-58
2022/01/27 07:36:56;;;;;;;22.47;15.73;;;0.60;99.90;;;;;;5113655;28;20617;-58
2022/01/27 07:39:23;;;;;;;31.23;16.80;;;0.80;99.90;;;;;;5113442;28;20489;-58
2022/01/27 07:41:51;;;;;;;30.20;16.67;;;0.90;99.90;;;;;;5113287;28;20470;-58
2022/01/27 07:44:19;;;;;;;30.60;19.30;;;0.90;99.90;;;;;;5114120;28;20443;-58
2022/01/27 07:46:47;;;;;;;33.87;15.93;;;0.60;99.90;;;;;;5113433;28;20533;-57
2022/01/27 07:49:14;;;;;;;23.60;15.23;;;0.50;99.90;;;;;;5113113;28;20943;-58
2022/01/27 07:51:41;;;;;;;35.07;16.93;;;0.70;99.90;;;;;;5113234;28;20498;-58
2022/01/27 07:54:08;;;;;;;33.80;18.90;;;0.90;99.90;;;;;;5112924;28;20461;-58
2022/01/27 07:56:36;;;;;;;30.30;17.40;;;1.00;99.90;;;;;;5113508;28;20511;-58
2022/01/27 07:59:03;;;;;;;41.67;19.07;;;1.00;99.90;;;;;;5113291;28;20987;-58
2022/01/27 08:01:32;;;;;;;27.57;16.93;;;0.90;99.90;;;;;;5113172;28;20470;-59
2022/01/27 08:03:59;;;;;;;27.60;17.07;;;0.90;99.90;;;;;;5112677;28;20932;-58
2022/01/27 08:06:26;;;;;;;39.47;18.53;;;0.90;99.90;;;;;;5112850;28;20931;-58
2022/01/27 08:08:53;;;;;;;33.40;18.27;;;0.70;99.90;;;;;;5113041;28;20529;-59
2022/01/27 08:11:20;;;;;;;26.27;15.23;;;0.50;99.90;;;;;;5112757;28;20449;-58
2022/01/27 08:13:48;;;;;;;40.40;17.83;;;0.60;99.90;;;;;;5112866;28;20538;-59
2022/01/27 08:16:15;;;;;;;35.90;17.97;;;0.70;99.90;;;;;;5113388;28;20897;-59
2022/01/27 08:18:44;;;;;;;31.97;16.03;;;0.80;99.90;;;;;;5112989;28;20455;-58
2022/01/27 08:21:11;;;;;;;32.33;18.60;;;0.90;99.90;;;;;;5112671;28;20554;-58
2022/01/27 08:23:40;;;;;;;35.90;16.40;;;0.90;99.90;;;;;;5113352;28;20557;-58
2022/01/27 08:26:10;;;;;;;30.13;14.87;;;0.90;99.90;;;;;;5112496;28;20521;-60
2022/01/27 08:28:42;;;;;;;35.00;17.37;;;1.00;99.90;;;;;;5112560;28;20768;-58
2022/01/27 08:31:11;;;;;;;27.40;17.20;;;0.90;99.90;;;;;;5112830;28;20494;-58
2022/01/27 08:33:40;;;;;;;33.03;17.83;;;0.30;99.90;;;;;;5113652;28;20446;-58
2022/01/27 08:36:09;;;;;;;33.10;17.43;;;0.40;99.90;;;;;;5116648;28;20486;-58
2022/01/27 08:38:41;;;;;;;32.80;17.87;;;0.40;99.90;;;;;;5116856;28;20525;-58
2022/01/27 08:41:09;;;;;;;32.30;16.30;;;0.30;99.90;;;;;;5116175;28;20496;-58
2022/01/27 08:43:36;;;;;;;32.70;17.30;;;0.30;99.90;;;;;;5116357;28;20450;-59
2022/01/27 08:46:03;;;;;;;29.00;17.20;;;0.50;99.90;;;;;;5116454;28;20855;-58
2022/01/27 08:48:32;;;;;;;29.93;16.63;;;0.60;99.90;;;;;;5116458;28;20929;-58
2022/01/27 08:51:01;;;;;;;34.20;16.47;;;0.60;99.90;;;;;;5116761;28;20466;-58
2022/01/27 08:53:30;;;;;;;35.43;18.10;;;0.50;99.90;;;;;;5116599;28;20814;-59
2022/01/27 08:55:58;;;;;;;29.80;17.17;;;0.40;99.90;;;;;;5116835;28;20465;-58
2022/01/27 08:58:25;;;;;;;29.80;16.57;;;0.40;99.90;;;;;;5116182;28;20453;-58
2022/01/27 09:00:53;;;;;;;38.87;18.50;;;0.20;99.90;;;;;;5116247;28;20490;-58
2022/01/27 09:03:21;;;;;;;34.43;16.60;;;0.40;99.90;;;;;;5116181;28;20924;-58
2022/01/27 09:05:48;;;;;;;27.50;16.33;;;0.30;99.90;;;;;;5116601;28;20450;-59
2022/01/27 09:08:15;;;;;;;34.83;16.67;;;0.30;99.90;;;;;;5116332;28;20446;-58
2022/01/27 09:10:46;;;;;;;33.47;17.20;;;0.40;99.90;;;;;;5116264;28;20560;-58
2022/01/27 09:13:14;;;;;;;30.77;18.03;;;0.50;99.90;;;;;;5116937;28;20542;-59
2022/01/27 09:15:43;;;;;;;31.50;18.37;;;0.70;99.90;;;;;;5116083;28;20812;-59
2022/01/27 09:18:10;;;;;;;31.00;17.30;;;1.00;99.90;;;;;;5116320;28;20478;-59
2022/01/27 09:20:37;;;;;;;30.93;16.17;;;1.00;99.90;;;;;;5115442;28;20492;-58
2022/01/27 09:23:12;;;;;;;26.23;15.57;;;0.90;99.90;;;;;;5116275;28;20521;-58
2022/01/27 09:25:43;;;;;;;29.13;15.97;;;1.10;99.90;;;;;;5116200;28;20482;-58
2022/01/27 09:28:12;;;;;;;30.50;16.00;;;1.10;99.90;;;;;;5116053;28;20492;-58
2022/01/27 09:30:40;;;;;;;23.63;14.43;;;1.20;99.90;;;;;;5115716;28;20901;-59
2022/01/27 09:33:08;;;;;;;28.93;14.50;;;1.20;99.90;;;;;;5115620;28;20953;-58
2022/01/27 09:35:36;;;;;;;25.30;13.50;;;1.30;99.90;;;;;;5115520;28;20929;-59
2022/01/27 09:38:04;;;;;;;25.57;12.90;;;1.40;99.90;;;;;;5115626;28;20941;-58
2022/01/27 09:40:33;;;;;;;20.27;11.43;;;1.40;99.90;;;;;;5115491;28;20842;-58
2022/01/27 09:43:02;;;;;;;18.73;11.27;;;1.70;99.90;;;;;;5115445;28;20447;-58
2022/01/27 09:45:36;;;;;;;20.77;11.87;;;1.70;99.90;;;;;;5115760;28;20858;-59
2022/01/27 09:48:12;;;;;;;18.40;10.60;;;1.70;99.90;;;;;;5115783;28;20781;-58
2022/01/27 09:50:49;;;;;;;18.53;10.43;;;1.50;99.90;;;;;;5115362;28;20522;-58
2022/01/27 09:53:17;;;;;;;18.40;10.90;;;1.50;99.90;;;;;;5115513;28;20426;-58
2022/01/27 09:55:45;;;;;;;23.90;11.60;;;1.70;99.90;;;;;;5115333;28;20454;-58
2022/01/27 09:58:12;;;;;;;20.03;9.13;;;1.70;99.90;;;;;;5115462;28;20783;-58
2022/01/27 10:00:41;;;;;;;20.50;11.73;;;1.70;99.90;;;;;;5114918;28;20478;-58
2022/01/27 10:03:11;;;;;;;19.70;13.17;;;1.80;99.90;;;;;;5115351;28;20446;-58
2022/01/27 10:05:39;;;;;;;19.77;12.20;;;1.90;99.90;;;;;;5115457;28;20450;-58
2022/01/27 10:08:10;;;;;;;21.07;11.70;;;1.90;99.90;;;;;;5115227;28;20447;-60
2022/01/27 10:10:40;;;;;;;18.20;13.27;;;1.90;99.90;;;;;;5114979;28;20423;-58
2022/01/27 10:13:08;;;;;;;16.23;10.63;;;2.10;99.90;;;;;;5114744;28;20454;-58
2022/01/27 10:15:42;;;;;;;17.77;11.63;;;2.10;99.90;;;;;;5114965;28;20447;-58
2022/01/27 10:18:12;;;;;;;18.50;12.00;;;2.10;99.90;;;;;;5114946;28;20488;-59
2022/01/27 10:20:42;;;;;;;18.80;11.20;;;2.10;99.90;;;;;;5114849;28;20883;-58
2022/01/27 10:23:16;;;;;;;19.17;12.50;;;2.10;99.90;;;;;;5114930;28;20442;-58
2022/01/27 10:25:51;;;;;;;16.40;9.77;;;2.10;99.90;;;;;;5114698;28;20478;-59
2022/01/27 10:28:40;;;;;;;18.67;10.20;;;2.10;99.90;;;;;;5115050;28;20522;-58
2022/01/27 10:31:10;;;;;;;18.33;11.30;;;2.20;99.90;;;;;;5114746;28;20467;-58
2022/01/27 10:33:50;;;;;;;16.77;10.00;;;2.30;99.90;;;;;;5114647;28;20790;-58
2022/01/27 10:36:20;;;;;;;21.57;10.43;;;2.60;99.90;;;;;;5115253;28;20430;-59
2022/01/27 10:38:50;;;;;;;13.40;9.80;;;2.80;99.90;;;;;;5115088;28;20529;-59
2022/01/27 10:41:17;;;;;;;14.67;9.00;;;2.50;99.90;;;;;;5114526;28;20484;-59
2022/01/27 10:43:45;;;;;;;15.40;9.10;;;2.50;99.90;;;;;;5114355;28;20442;-59
2022/01/27 10:46:22;;;;;;;17.40;10.27;;;2.50;99.90;;;;;;5114045;28;20537;-59
2022/01/27 10:48:54;;;;;;;18.47;10.57;;;2.50;99.90;;;;;;5114097;28;20901;-59
2022/01/27 10:51:26;;;;;;;18.10;9.90;;;2.50;99.90;;;;;;5114378;28;20863;-59
2022/01/27 10:54:00;;;;;;;17.57;11.37;;;2.70;99.90;;;;;;5114112;28;20434;-58
2022/01/27 10:56:28;;;;;;;18.43;9.90;;;;;;;;;;5114244;28;20454;-59
2022/01/27 10:58:58;;;;;;;16.70;10.30;;;2.80;99.90;;;;;;5114128;28;20959;-59
2022/01/27 11:01:32;;;;;;;19.50;10.10;;;2.70;99.90;;;;;;5114200;28;20520;-59
2022/01/27 11:04:02;;;;;;;15.10;10.13;;;2.90;99.90;;;;;;5114171;28;20554;-59
2022/01/27 11:06:32;;;;;;;14.60;10.30;;;2.80;99.90;;;;;;5115119;28;20533;-59
2022/01/27 11:09:04;;;;;;;18.83;11.23;;;2.80;99.90;;;;;;5113966;28;20496;-59
2022/01/27 11:11:31;;;;;;;16.40;10.00;;;2.70;99.90;;;;;;5114222;28;20463;-59
2022/01/27 11:13:59;;;;;;;15.20;9.17;;;2.70;99.90;;;;;;5113723;28;20965;-59
2022/01/27 11:16:35;;;;;;;15.10;9.40;;;3.00;99.90;;;;;;5114180;28;20824;-59
2022/01/27 11:19:35;;;;;;;14.07;9.87;;;3.10;99.90;;;;;;5113858;28;20893;-59
2022/01/27 11:22:08;;;;;;;14.67;11.00;;;3.20;99.90;;;;;;5113535;28;20451;-59
2022/01/27 11:25:05;;;;;;;12.13;8.73;;;3.10;99.90;;;;;;5113597;28;20889;-59
2022/01/27 11:27:34;;;;;;;15.90;9.03;;;3.00;99.90;;;;;;5113294;28;20459;-59
2022/01/27 11:30:05;;;;;;;20.10;11.47;;;3.10;99.90;;;;;;5114155;28;20558;-58
2022/01/27 11:32:36;;;;;;;13.80;9.43;;;3.00;99.90;;;;;;5115301;28;20549;-61
2022/01/27 11:35:17;;;;;;;14.43;9.30;;;3.10;99.90;;;;;;5113924;28;20439;-59
2022/01/27 11:37:50;;;;;;;14.23;9.50;;;3.10;99.90;;;;;;5114019;28;20430;-57
2022/01/27 11:40:18;;;;;;;15.80;8.80;;;3.10;99.90;;;;;;5114041;28;20952;-58
2022/01/27 11:43:04;;;;;;;15.40;9.50;;;3.20;99.90;;;;;;5113673;28;20462;-58
2022/01/27 11:45:36;;;;;;;13.47;9.00;;;3.40;99.90;;;;;;5113823;28;20443;-58
2022/01/27 11:48:10;;;;;;;17.83;9.90;;;3.40;99.90;;;;;;5113738;28;20472;-58
2022/01/27 11:50:53;;;;;;;14.23;9.30;;;3.40;99.90;;;;;;5113494;28;20434;-57
2022/01/27 11:53:32;;;;;;;13.27;9.50;;;3.30;99.90;;;;;;5113708;28;20446;-60
2022/01/27 11:56:01;;;;;;;12.63;8.97;;;3.40;99.90;;;;;;5113799;28;20945;-58
2022/01/27 11:58:29;;;;;;;15.80;9.53;;;3.40;99.90;;;;;;5113513;28;20471;-58
2022/01/27 12:01:21;;;;;;;13.90;9.30;;;3.50;99.90;;;;;;5113518;28;20493;-59
2022/01/27 12:04:18;;;;;;;15.40;9.87;;;3.50;99.90;;;;;;5109445;28;20497;-58
2022/01/27 12:07:08;;;;;;;19.83;10.30;;;3.40;99.90;;;;;;5030824;28;20438;-58
2022/01/27 12:09:37;;;;;;;15.40;10.30;;;3.40;99.90;;;;;;5109937;28;20442;-59
2022/01/27 12:12:12;;;;;;;13.50;9.77;;;3.50;99.90;;;;;;5117495;28;20469;-59
2022/01/27 12:15:03;;;;;;;16.60;10.20;;;3.60;99.90;;;;;;5117287;28;20484;-60
2022/01/27 12:17:30;;;;;;;19.10;11.47;;;3.40;99.90;;;;;;5117345;28;20442;-59
2022/01/27 12:20:00;;;;;;;22.73;12.23;;;3.40;99.90;;;;;;5117130;28;20442;-59
2022/01/27 12:23:02;;;;;;;18.33;11.63;;;3.30;99.90;;;;;;5116934;28;20661;-59
2022/01/27 12:25:52;;;;;;;16.73;10.87;;;3.30;99.90;;;;;;5116823;28;20573;-60
2022/01/27 12:28:20;;;;;;;17.37;10.17;;;3.30;99.90;;;;;;5117378;28;20595;-59
2022/01/27 12:31:00;;;;;;;16.37;10.73;;;3.30;99.90;;;;;;5116914;28;20502;-58
2022/01/27 12:33:28;;;;;;;22.93;12.13;;;3.30;99.90;;;;;;5116922;28;20454;-57
2022/01/27 12:35:56;;;;;;;13.83;10.37;;;3.30;99.90;;;;;;5117096;28;20442;-58
2022/01/27 12:38:25;;;;;;;19.03;10.57;;;3.30;99.90;;;;;;5116533;28;20474;-58
2022/01/27 12:40:57;;;;;;;16.47;11.83;;;3.30;99.90;;;;;;5116744;28;20826;-59
2022/01/27 12:43:25;;;;;;;17.90;10.60;;;3.30;99.90;;;;;;5116958;28;20439;-59
2022/01/27 12:45:52;;;;;;;19.00;10.57;;;3.30;99.90;;;;;;5116857;28;20537;-58
2022/01/27 12:48:24;;;;;;;18.20;11.70;;;3.30;99.90;;;;;;5116445;28;20453;-58
2022/01/27 12:51:01;;;;;;;21.17;13.27;;;3.40;99.90;;;;;;5116375;28;20459;-58
2022/01/27 12:53:31;;;;;;;17.20;11.80;;;3.50;99.90;;;;;;5116543;28;20439;-58
2022/01/27 12:55:58;;;;;;;21.33;12.37;;;3.60;99.90;;;;;;5116215;28;20498;-57
2022/01/27 12:58:30;;;;;;;19.13;12.13;;;3.60;99.90;;;;;;5116287;28;20838;-57
2022/01/27 13:00:57;;;;;;;14.30;10.30;;;3.70;99.90;;;;;;5116436;28;20664;-57
2022/01/27 13:03:25;;;;;;;16.80;10.67;;;3.70;99.90;;;;;;5117184;28;20459;-57
2022/01/27 13:05:53;;;;;;;18.73;11.40;;;3.70;99.90;;;;;;5116409;28;20446;-57
2022/01/27 13:08:25;;;;;;;15.73;11.07;;;3.70;99.90;;;;;;5116180;28;20952;-59
2022/01/27 13:10:57;;;;;;;17.37;11.23;;;3.80;99.90;;;;;;5117227;28;20562;-59
2022/01/27 13:13:28;;;;;;;17.10;11.53;;;3.80;99.90;;;;;;5116035;28;20434;-57
2022/01/27 13:15:59;;;;;;;16.50;10.60;;;3.80;99.90;;;;;;5116127;28;20917;-58
2022/01/27 13:18:31;;;;;;;35.77;15.77;;;3.80;99.90;;;;;;5116233;28;20465;-58